sensor_id;sensor_type;location;lat;lon;timestamp;P1;durP1;ratioP1;P2;durP2;ratioP2
23712;SDS011;12035;49.978;8.298;2024-03-23T00:56:23;17.58;;;10.98;;
23712;SDS011;12035;49.978;8.298;2024-03-23T01:01:20;16.58;;;10.85;;
23712;SDS011;12035;49.978;8.298;2024-03-23T01:06:17;16.05;;;9.85;;
23712;SDS011;12035;49.978;8.298;2024-03-23T01:11:14;16.33;;;10.40;;
23712;SDS011;12035;49.978;8.298;2024-03-23T01:16:13;14.25;;;9.60;;
23712;SDS011;12035;49.978;8.298;2024-03-23T01:21:13;15.48;;;9.15;;
23712;SDS011;12035;49.978;8.298;2024-03-23T01:26:10;17.10;;;10.55;;
23712;SDS011;12035;49.978;8.298;2024-03-23T01:31:07;15.82;;;8.98;;
23712;SDS011;12035;49.978;8.298;2024-03-23T01:36:05;15.60;;;9.10;;
23712;SDS011;12035;49.978;8.298;2024-03-23T01:41:02;14.88;;;8.95;;
23712;SDS011;12035;49.978;8.298;2024-03-23T01:46:00;12.93;;;8.07;;
23712;SDS011;12035;49.978;8.298;2024-03-23T01:50:57;13.45;;;8.02;;
23712;SDS011;12035;49.978;8.298;2024-03-23T01:55:56;12.15;;;7.72;;
23712;SDS011;12035;49.978;8.298;2024-03-23T02:00:53;15.93;;;7.97;;
23712;SDS011;12035;49.978;8.298;2024-03-23T02:05:50;14.32;;;8.38;;
23712;SDS011;12035;49.978;8.298;2024-03-23T02:10:49;12.38;;;7.95;;
23712;SDS011;12035;49.978;8.298;2024-03-23T02:15:47;16.23;;;8.40;;
23712;SDS011;12035;49.978;8.298;2024-03-23T02:20:45;13.45;;;8.00;;
23712;SDS011;12035;49.978;8.298;2024-03-23T02:25:43;14.65;;;9.13;;
23712;SDS011;12035;49.978;8.298;2024-03-23T02:30:40;13.60;;;8.98;;
23712;SDS011;12035;49.978;8.298;2024-03-23T02:35:37;14.45;;;8.65;;
23712;SDS011;12035;49.978;8.298;2024-03-23T02:40:34;12.63;;;7.80;;
23712;SDS011;12035;49.978;8.298;2024-03-23T02:45:34;15.45;;;8.57;;
23712;SDS011;12035;49.978;8.298;2024-03-23T02:50:31;12.80;;;8.38;;
23712;SDS011;12035;49.978;8.298;2024-03-23T02:55:28;11.18;;;7.32;;
23712;SDS011;12035;49.978;8.298;2024-03-23T03:00:25;10.75;;;6.75;;
23712;SDS011;12035;49.978;8.298;2024-03-23T03:05:24;8.18;;;5.15;;
23712;SDS011;12035;49.978;8.298;2024-03-23T03:10:21;9.27;;;5.60;;
23712;SDS011;12035;49.978;8.298;2024-03-23T03:15:18;12.88;;;6.75;;
23712;SDS011;12035;49.978;8.298;2024-03-23T03:20:15;11.32;;;6.57;;
23712;SDS011;12035;49.978;8.298;2024-03-23T03:25:14;10.23;;;6.20;;
23712;SDS011;12035;49.978;8.298;2024-03-23T03:30:11;12.15;;;6.60;;
23712;SDS011;12035;49.978;8.298;2024-03-23T03:35:09;11.63;;;6.40;;
23712;SDS011;12035;49.978;8.298;2024-03-23T03:40:07;9.10;;;5.95;;
23712;SDS011;12035;49.978;8.298;2024-03-23T03:45:08;9.10;;;6.00;;
23712;SDS011;12035;49.978;8.298;2024-03-23T03:50:10;10.52;;;5.60;;
23712;SDS011;12035;49.978;8.298;2024-03-23T03:55:12;11.98;;;7.32;;
23712;SDS011;12035;49.978;8.298;2024-03-23T04:00:12;15.85;;;10.23;;
23712;SDS011;12035;49.978;8.298;2024-03-23T04:05:10;12.82;;;9.00;;
23712;SDS011;12035;49.978;8.298;2024-03-23T04:10:08;10.80;;;6.75;;
23712;SDS011;12035;49.978;8.298;2024-03-23T04:15:05;5.53;;;3.58;;
23712;SDS011;12035;49.978;8.298;2024-03-23T04:20:05;5.35;;;3.08;;
23712;SDS011;12035;49.978;8.298;2024-03-23T04:25:06;3.83;;;2.10;;
23712;SDS011;12035;49.978;8.298;2024-03-23T04:30:03;1.77;;;1.00;;
23712;SDS011;12035;49.978;8.298;2024-03-23T04:35:07;1.80;;;0.75;;
23712;SDS011;12035;49.978;8.298;2024-03-23T04:40:05;0.90;;;0.50;;
23712;SDS011;12035;49.978;8.298;2024-03-23T04:45:04;1.10;;;0.50;;
23712;SDS011;12035;49.978;8.298;2024-03-23T04:50:02;1.20;;;0.40;;
23712;SDS011;12035;49.978;8.298;2024-03-23T04:55:01;0.75;;;0.45;;
23712;SDS011;12035;49.978;8.298;2024-03-23T04:59:59;0.68;;;0.60;;
23712;SDS011;12035;49.978;8.298;2024-03-23T05:04:56;0.88;;;0.50;;
23712;SDS011;12035;49.978;8.298;2024-03-23T05:09:53;1.42;;;0.80;;
23712;SDS011;12035;49.978;8.298;2024-03-23T05:14:51;1.45;;;0.65;;
23712;SDS011;12035;49.978;8.298;2024-03-23T05:19:48;1.05;;;0.70;;
23712;SDS011;12035;49.978;8.298;2024-03-23T05:24:45;1.10;;;0.80;;
23712;SDS011;12035;49.978;8.298;2024-03-23T05:29:42;1.63;;;0.98;;
23712;SDS011;12035;49.978;8.298;2024-03-23T05:34:41;1.60;;;0.80;;
23712;SDS011;12035;49.978;8.298;2024-03-23T05:39:38;1.15;;;0.70;;
23712;SDS011;12035;49.978;8.298;2024-03-23T05:44:35;0.70;;;0.60;;
23712;SDS011;12035;49.978;8.298;2024-03-23T05:49:33;0.68;;;0.57;;
23712;SDS011;12035;49.978;8.298;2024-03-23T05:54:31;0.80;;;0.50;;
23712;SDS011;12035;49.978;8.298;2024-03-23T05:59:28;0.77;;;0.40;;
23712;SDS011;12035;49.978;8.298;2024-03-23T06:04:26;0.88;;;0.30;;
23712;SDS011;12035;49.978;8.298;2024-03-23T06:09:23;0.32;;;0.30;;
23712;SDS011;12035;49.978;8.298;2024-03-23T06:14:22;1.13;;;0.50;;
23712;SDS011;12035;49.978;8.298;2024-03-23T06:19:19;1.08;;;0.60;;
23712;SDS011;12035;49.978;8.298;2024-03-23T06:24:16;1.25;;;0.50;;
23712;SDS011;12035;49.978;8.298;2024-03-23T06:29:13;1.08;;;0.43;;
23712;SDS011;12035;49.978;8.298;2024-03-23T06:34:11;0.63;;;0.35;;
23712;SDS011;12035;49.978;8.298;2024-03-23T06:39:08;0.60;;;0.40;;
23712;SDS011;12035;49.978;8.298;2024-03-23T06:44:07;0.75;;;0.43;;
23712;SDS011;12035;49.978;8.298;2024-03-23T06:49:04;5.35;;;0.45;;
23712;SDS011;12035;49.978;8.298;2024-03-23T06:54:03;1.20;;;0.60;;
23712;SDS011;12035;49.978;8.298;2024-03-23T06:59:00;1.95;;;0.80;;
23712;SDS011;12035;49.978;8.298;2024-03-23T07:03:58;1.20;;;0.55;;
23712;SDS011;12035;49.978;8.298;2024-03-23T07:08:54;3.60;;;0.98;;
23712;SDS011;12035;49.978;8.298;2024-03-23T07:13:53;2.30;;;0.80;;
23712;SDS011;12035;49.978;8.298;2024-03-23T07:18:50;3.28;;;0.77;;
23712;SDS011;12035;49.978;8.298;2024-03-23T07:23:47;3.50;;;0.70;;
23712;SDS011;12035;49.978;8.298;2024-03-23T07:28:44;4.70;;;1.40;;
23712;SDS011;12035;49.978;8.298;2024-03-23T07:33:43;4.50;;;1.10;;
23712;SDS011;12035;49.978;8.298;2024-03-23T07:38:42;3.10;;;1.20;;
23712;SDS011;12035;49.978;8.298;2024-03-23T07:43:40;3.63;;;1.15;;
23712;SDS011;12035;49.978;8.298;2024-03-23T07:48:38;3.13;;;1.35;;
23712;SDS011;12035;49.978;8.298;2024-03-23T07:53:38;4.10;;;1.92;;
23712;SDS011;12035;49.978;8.298;2024-03-23T07:58:37;4.38;;;1.50;;
23712;SDS011;12035;49.978;8.298;2024-03-23T08:03:35;3.03;;;1.48;;
23712;SDS011;12035;49.978;8.298;2024-03-23T08:08:32;5.80;;;1.80;;
23712;SDS011;12035;49.978;8.298;2024-03-23T08:13:31;5.22;;;1.95;;
23712;SDS011;12035;49.978;8.298;2024-03-23T08:18:28;4.80;;;1.85;;
23712;SDS011;12035;49.978;8.298;2024-03-23T08:23:26;7.55;;;2.17;;
23712;SDS011;12035;49.978;8.298;2024-03-23T08:28:25;7.43;;;2.33;;
23712;SDS011;12035;49.978;8.298;2024-03-23T08:33:24;6.60;;;1.83;;
23712;SDS011;12035;49.978;8.298;2024-03-23T08:38:21;5.80;;;1.73;;
23712;SDS011;12035;49.978;8.298;2024-03-23T08:43:19;5.05;;;1.88;;
23712;SDS011;12035;49.978;8.298;2024-03-23T08:48:16;7.68;;;1.77;;
23712;SDS011;12035;49.978;8.298;2024-03-23T08:53:15;7.32;;;2.35;;
23712;SDS011;12035;49.978;8.298;2024-03-23T08:58:12;7.65;;;2.00;;
23712;SDS011;12035;49.978;8.298;2024-03-23T09:03:12;8.98;;;2.42;;
23712;SDS011;12035;49.978;8.298;2024-03-23T09:08:09;5.97;;;1.95;;
23712;SDS011;12035;49.978;8.298;2024-03-23T09:13:08;5.40;;;1.85;;
23712;SDS011;12035;49.978;8.298;2024-03-23T09:18:05;7.68;;;2.38;;
23712;SDS011;12035;49.978;8.298;2024-03-23T09:23:03;8.07;;;1.73;;
23712;SDS011;12035;49.978;8.298;2024-03-23T09:28:01;5.78;;;1.38;;
23712;SDS011;12035;49.978;8.298;2024-03-23T09:32:59;4.65;;;1.30;;
23712;SDS011;12035;49.978;8.298;2024-03-23T09:37:57;4.32;;;1.20;;
23712;SDS011;12035;49.978;8.298;2024-03-23T09:42:54;5.45;;;1.65;;
23712;SDS011;12035;49.978;8.298;2024-03-23T09:47:51;5.05;;;1.30;;
23712;SDS011;12035;49.978;8.298;2024-03-23T09:52:50;6.13;;;1.08;;
23712;SDS011;12035;49.978;8.298;2024-03-23T09:57:47;4.65;;;1.30;;
23712;SDS011;12035;49.978;8.298;2024-03-23T10:02:45;5.28;;;1.08;;
23712;SDS011;12035;49.978;8.298;2024-03-23T10:07:42;5.53;;;1.15;;
23712;SDS011;12035;49.978;8.298;2024-03-23T10:12:43;3.83;;;1.15;;
23712;SDS011;12035;49.978;8.298;2024-03-23T10:17:42;8.40;;;1.65;;
23712;SDS011;12035;49.978;8.298;2024-03-23T10:22:39;4.80;;;1.60;;
23712;SDS011;12035;49.978;8.298;2024-03-23T10:27:38;7.10;;;1.27;;
23712;SDS011;12035;49.978;8.298;2024-03-23T10:32:37;3.25;;;0.93;;
23712;SDS011;12035;49.978;8.298;2024-03-23T10:37:34;4.88;;;0.70;;
23712;SDS011;12035;49.978;8.298;2024-03-23T10:42:32;3.70;;;1.00;;
23712;SDS011;12035;49.978;8.298;2024-03-23T10:47:30;5.63;;;1.45;;
23712;SDS011;12035;49.978;8.298;2024-03-23T10:52:32;6.55;;;1.45;;
23712;SDS011;12035;49.978;8.298;2024-03-23T10:57:30;2.53;;;1.00;;
23712;SDS011;12035;49.978;8.298;2024-03-23T11:02:34;8.60;;;1.48;;
23712;SDS011;12035;49.978;8.298;2024-03-23T11:07:33;6.10;;;1.65;;
23712;SDS011;12035;49.978;8.298;2024-03-23T11:12:30;4.30;;;0.90;;
23712;SDS011;12035;49.978;8.298;2024-03-23T11:17:30;1.75;;;0.60;;
23712;SDS011;12035;49.978;8.298;2024-03-23T11:22:41;5.65;;;1.35;;
23712;SDS011;12035;49.978;8.298;2024-03-23T11:27:39;4.07;;;0.93;;
23712;SDS011;12035;49.978;8.298;2024-03-23T11:32:37;4.22;;;1.40;;
23712;SDS011;12035;49.978;8.298;2024-03-23T11:37:34;7.00;;;1.65;;
23712;SDS011;12035;49.978;8.298;2024-03-23T11:42:32;10.65;;;2.05;;
23712;SDS011;12035;49.978;8.298;2024-03-23T11:47:33;5.38;;;1.75;;
23712;SDS011;12035;49.978;8.298;2024-03-23T11:52:30;8.13;;;2.33;;
23712;SDS011;12035;49.978;8.298;2024-03-23T11:57:27;6.47;;;2.33;;
23712;SDS011;12035;49.978;8.298;2024-03-23T12:02:27;6.18;;;2.03;;
23712;SDS011;12035;49.978;8.298;2024-03-23T12:07:24;6.70;;;1.75;;
23712;SDS011;12035;49.978;8.298;2024-03-23T12:12:21;8.05;;;2.00;;
23712;SDS011;12035;49.978;8.298;2024-03-23T12:17:19;4.65;;;1.20;;
23712;SDS011;12035;49.978;8.298;2024-03-23T12:22:21;4.32;;;1.35;;
23712;SDS011;12035;49.978;8.298;2024-03-23T12:27:18;4.18;;;1.05;;
23712;SDS011;12035;49.978;8.298;2024-03-23T12:32:15;5.90;;;1.30;;
23712;SDS011;12035;49.978;8.298;2024-03-23T12:37:13;6.70;;;1.42;;
23712;SDS011;12035;49.978;8.298;2024-03-23T12:42:13;8.00;;;1.48;;
23712;SDS011;12035;49.978;8.298;2024-03-23T12:47:11;2.53;;;0.90;;
23712;SDS011;12035;49.978;8.298;2024-03-23T12:52:08;1.10;;;0.40;;
23712;SDS011;12035;49.978;8.298;2024-03-23T12:57:07;0.95;;;0.30;;
23712;SDS011;12035;49.978;8.298;2024-03-23T13:02:05;0.80;;;0.30;;
23712;SDS011;12035;49.978;8.298;2024-03-23T13:07:02;0.20;;;0.10;;
23712;SDS011;12035;49.978;8.298;2024-03-23T13:12:00;0.93;;;0.20;;
23712;SDS011;12035;49.978;8.298;2024-03-23T13:16:57;0.82;;;0.32;;
23712;SDS011;12035;49.978;8.298;2024-03-23T13:21:56;1.30;;;0.35;;
23712;SDS011;12035;49.978;8.298;2024-03-23T13:26:55;1.10;;;0.20;;
23712;SDS011;12035;49.978;8.298;2024-03-23T13:31:52;1.30;;;0.40;;
23712;SDS011;12035;49.978;8.298;2024-03-23T13:36:49;1.40;;;0.38;;
23712;SDS011;12035;49.978;8.298;2024-03-23T13:41:48;0.40;;;0.20;;
23712;SDS011;12035;49.978;8.298;2024-03-23T13:46:45;1.38;;;0.40;;
23712;SDS011;12035;49.978;8.298;2024-03-23T13:51:43;0.80;;;0.40;;
23712;SDS011;12035;49.978;8.298;2024-03-23T13:56:43;1.08;;;0.40;;
23712;SDS011;12035;49.978;8.298;2024-03-23T14:01:41;1.08;;;0.40;;
23712;SDS011;12035;49.978;8.298;2024-03-23T14:06:39;2.70;;;0.57;;
23712;SDS011;12035;49.978;8.298;2024-03-23T14:11:37;1.30;;;0.30;;
23712;SDS011;12035;49.978;8.298;2024-03-23T14:16:35;0.63;;;0.28;;
23712;SDS011;12035;49.978;8.298;2024-03-23T14:21:34;0.98;;;0.32;;
23712;SDS011;12035;49.978;8.298;2024-03-23T14:26:31;2.42;;;0.65;;
23712;SDS011;12035;49.978;8.298;2024-03-23T14:31:28;1.88;;;0.40;;
23712;SDS011;12035;49.978;8.298;2024-03-23T14:36:26;2.70;;;0.68;;
23712;SDS011;12035;49.978;8.298;2024-03-23T14:41:25;2.47;;;0.50;;
23712;SDS011;12035;49.978;8.298;2024-03-23T14:46:22;2.53;;;0.38;;
23712;SDS011;12035;49.978;8.298;2024-03-23T14:51:19;2.05;;;0.55;;
23712;SDS011;12035;49.978;8.298;2024-03-23T14:56:17;3.55;;;0.60;;
23712;SDS011;12035;49.978;8.298;2024-03-23T15:01:16;2.72;;;0.40;;
23712;SDS011;12035;49.978;8.298;2024-03-23T15:06:13;1.40;;;0.40;;
23712;SDS011;12035;49.978;8.298;2024-03-23T15:11:10;1.00;;;0.40;;
23712;SDS011;12035;49.978;8.298;2024-03-23T15:16:07;1.35;;;0.50;;
23712;SDS011;12035;49.978;8.298;2024-03-23T15:21:06;2.03;;;0.50;;
23712;SDS011;12035;49.978;8.298;2024-03-23T15:26:05;1.75;;;0.45;;
23712;SDS011;12035;49.978;8.298;2024-03-23T15:31:02;1.45;;;0.40;;
23712;SDS011;12035;49.978;8.298;2024-03-23T15:36:00;1.95;;;0.50;;
23712;SDS011;12035;49.978;8.298;2024-03-23T15:40:58;1.98;;;0.40;;
23712;SDS011;12035;49.978;8.298;2024-03-23T15:45:57;1.00;;;0.30;;
23712;SDS011;12035;49.978;8.298;2024-03-23T15:50:56;2.22;;;0.50;;
23712;SDS011;12035;49.978;8.298;2024-03-23T15:55:55;1.92;;;0.40;;
23712;SDS011;12035;49.978;8.298;2024-03-23T16:00:55;1.17;;;0.50;;
23712;SDS011;12035;49.978;8.298;2024-03-23T16:05:53;0.77;;;0.30;;
23712;SDS011;12035;49.978;8.298;2024-03-23T16:10:52;1.05;;;0.40;;
23712;SDS011;12035;49.978;8.298;2024-03-23T16:15:55;1.73;;;0.70;;
23712;SDS011;12035;49.978;8.298;2024-03-23T16:20:53;0.93;;;0.40;;
23712;SDS011;12035;49.978;8.298;2024-03-23T16:25:51;2.45;;;0.52;;
23712;SDS011;12035;49.978;8.298;2024-03-23T16:30:53;1.10;;;0.50;;
23712;SDS011;12035;49.978;8.298;2024-03-23T16:35:56;2.80;;;0.80;;
23712;SDS011;12035;49.978;8.298;2024-03-23T16:40:57;1.48;;;0.45;;
23712;SDS011;12035;49.978;8.298;2024-03-23T16:45:58;1.88;;;0.60;;
23712;SDS011;12035;49.978;8.298;2024-03-23T16:50:57;3.72;;;0.80;;
23712;SDS011;12035;49.978;8.298;2024-03-23T16:55:55;2.15;;;0.52;;
23712;SDS011;12035;49.978;8.298;2024-03-23T17:00:52;2.85;;;0.57;;
23712;SDS011;12035;49.978;8.298;2024-03-23T17:05:52;1.95;;;0.55;;
23712;SDS011;12035;49.978;8.298;2024-03-23T17:10:49;3.58;;;0.57;;
23712;SDS011;12035;49.978;8.298;2024-03-23T17:15:49;2.75;;;0.40;;
23712;SDS011;12035;49.978;8.298;2024-03-23T17:20:46;1.98;;;0.40;;
23712;SDS011;12035;49.978;8.298;2024-03-23T17:25:45;2.35;;;0.50;;
23712;SDS011;12035;49.978;8.298;2024-03-23T17:30:42;1.35;;;0.28;;
23712;SDS011;12035;49.978;8.298;2024-03-23T17:35:39;1.30;;;0.50;;
23712;SDS011;12035;49.978;8.298;2024-03-23T17:40:40;1.50;;;0.40;;
23712;SDS011;12035;49.978;8.298;2024-03-23T17:45:39;1.55;;;0.38;;
23712;SDS011;12035;49.978;8.298;2024-03-23T17:50:36;2.42;;;0.50;;
23712;SDS011;12035;49.978;8.298;2024-03-23T17:55:33;1.00;;;0.40;;
23712;SDS011;12035;49.978;8.298;2024-03-23T18:00:30;0.63;;;0.30;;
23712;SDS011;12035;49.978;8.298;2024-03-23T18:05:29;1.65;;;0.40;;
23712;SDS011;12035;49.978;8.298;2024-03-23T18:10:26;1.27;;;0.60;;
23712;SDS011;12035;49.978;8.298;2024-03-23T18:15:24;2.22;;;0.50;;
23712;SDS011;12035;49.978;8.298;2024-03-23T18:20:24;2.50;;;0.82;;
23712;SDS011;12035;49.978;8.298;2024-03-23T18:25:22;2.40;;;0.73;;
23712;SDS011;12035;49.978;8.298;2024-03-23T18:30:19;0.90;;;0.63;;
23712;SDS011;12035;49.978;8.298;2024-03-23T18:35:16;1.17;;;0.63;;
23712;SDS011;12035;49.978;8.298;2024-03-23T18:40:13;1.30;;;0.57;;
23712;SDS011;12035;49.978;8.298;2024-03-23T18:45:14;0.80;;;0.40;;
23712;SDS011;12035;49.978;8.298;2024-03-23T18:50:11;1.65;;;0.50;;
23712;SDS011;12035;49.978;8.298;2024-03-23T18:55:08;2.70;;;0.60;;
23712;SDS011;12035;49.978;8.298;2024-03-23T19:00:06;2.50;;;0.70;;
23712;SDS011;12035;49.978;8.298;2024-03-23T19:05:06;1.08;;;0.60;;
23712;SDS011;12035;49.978;8.298;2024-03-23T19:10:04;1.40;;;0.55;;
23712;SDS011;12035;49.978;8.298;2024-03-23T19:15:02;1.67;;;0.57;;
23712;SDS011;12035;49.978;8.298;2024-03-23T19:20:03;1.85;;;0.70;;
23712;SDS011;12035;49.978;8.298;2024-03-23T19:25:04;2.30;;;1.20;;
23712;SDS011;12035;49.978;8.298;2024-03-23T19:30:05;2.88;;;1.08;;
23712;SDS011;12035;49.978;8.298;2024-03-23T19:35:03;0.80;;;0.40;;
23712;SDS011;12035;49.978;8.298;2024-03-23T19:40:04;2.45;;;1.10;;
23712;SDS011;12035;49.978;8.298;2024-03-23T19:45:03;0.85;;;0.40;;
23712;SDS011;12035;49.978;8.298;2024-03-23T19:50:02;7.22;;;2.03;;
23712;SDS011;12035;49.978;8.298;2024-03-23T19:55:01;8.60;;;2.45;;
23712;SDS011;12035;49.978;8.298;2024-03-23T19:59:58;3.15;;;0.80;;
23712;SDS011;12035;49.978;8.298;2024-03-23T20:04:55;1.38;;;0.57;;
23712;SDS011;12035;49.978;8.298;2024-03-23T20:09:52;1.33;;;0.63;;
23712;SDS011;12035;49.978;8.298;2024-03-23T20:14:50;2.00;;;0.77;;
23712;SDS011;12035;49.978;8.298;2024-03-23T20:19:47;0.88;;;0.50;;
23712;SDS011;12035;49.978;8.298;2024-03-23T20:24:44;1.30;;;0.80;;
23712;SDS011;12035;49.978;8.298;2024-03-23T20:29:41;2.70;;;0.90;;
23712;SDS011;12035;49.978;8.298;2024-03-23T20:34:40;2.97;;;1.30;;
23712;SDS011;12035;49.978;8.298;2024-03-23T20:39:38;3.92;;;1.42;;
23712;SDS011;12035;49.978;8.298;2024-03-23T20:44:35;2.65;;;1.10;;
23712;SDS011;12035;49.978;8.298;2024-03-23T20:49:32;3.10;;;1.30;;
23712;SDS011;12035;49.978;8.298;2024-03-23T20:54:32;2.80;;;0.98;;
23712;SDS011;12035;49.978;8.298;2024-03-23T20:59:30;3.60;;;1.08;;
23712;SDS011;12035;49.978;8.298;2024-03-23T21:04:27;1.73;;;0.70;;
23712;SDS011;12035;49.978;8.298;2024-03-23T21:09:24;2.28;;;0.90;;
23712;SDS011;12035;49.978;8.298;2024-03-23T21:14:22;2.15;;;0.80;;
23712;SDS011;12035;49.978;8.298;2024-03-23T21:19:19;2.35;;;1.20;;
23712;SDS011;12035;49.978;8.298;2024-03-23T21:24:16;2.42;;;0.90;;
23712;SDS011;12035;49.978;8.298;2024-03-23T21:29:13;1.42;;;0.55;;
23712;SDS011;12035;49.978;8.298;2024-03-23T21:34:12;2.65;;;0.80;;
23712;SDS011;12035;49.978;8.298;2024-03-23T21:39:09;1.08;;;0.50;;
23712;SDS011;12035;49.978;8.298;2024-03-23T21:44:09;2.30;;;0.80;;
23712;SDS011;12035;49.978;8.298;2024-03-23T21:49:06;2.70;;;1.00;;
23712;SDS011;12035;49.978;8.298;2024-03-23T21:54:04;2.35;;;0.70;;
23712;SDS011;12035;49.978;8.298;2024-03-23T21:59:01;1.33;;;0.52;;
23712;SDS011;12035;49.978;8.298;2024-03-23T22:03:58;2.60;;;0.70;;
23712;SDS011;12035;49.978;8.298;2024-03-23T22:08:55;1.90;;;0.68;;
23712;SDS011;12035;49.978;8.298;2024-03-23T22:13:54;2.78;;;1.02;;
23712;SDS011;12035;49.978;8.298;2024-03-23T22:18:51;3.78;;;1.35;;
23712;SDS011;12035;49.978;8.298;2024-03-23T22:23:48;3.83;;;1.55;;
23712;SDS011;12035;49.978;8.298;2024-03-23T22:28:46;3.67;;;1.00;;
23712;SDS011;12035;49.978;8.298;2024-03-23T22:33:44;2.47;;;0.98;;
23712;SDS011;12035;49.978;8.298;2024-03-23T22:38:41;2.65;;;1.10;;
23712;SDS011;12035;49.978;8.298;2024-03-23T22:43:38;3.13;;;0.93;;
23712;SDS011;12035;49.978;8.298;2024-03-23T22:48:35;2.17;;;1.20;;
23712;SDS011;12035;49.978;8.298;2024-03-23T22:53:34;4.13;;;1.60;;
23712;SDS011;12035;49.978;8.298;2024-03-23T22:58:31;3.65;;;1.90;;
23712;SDS011;12035;49.978;8.298;2024-03-23T23:03:29;4.32;;;2.20;;
23712;SDS011;12035;49.978;8.298;2024-03-23T23:08:26;9.98;;;2.22;;
23712;SDS011;12035;49.978;8.298;2024-03-23T23:13:24;5.18;;;2.60;;
23712;SDS011;12035;49.978;8.298;2024-03-23T23:18:22;5.05;;;2.45;;
23712;SDS011;12035;49.978;8.298;2024-03-23T23:23:20;4.68;;;2.70;;
23712;SDS011;12035;49.978;8.298;2024-03-23T23:28:19;4.95;;;3.15;;
23712;SDS011;12035;49.978;8.298;2024-03-23T23:33:18;4.38;;;2.50;;
23712;SDS011;12035;49.978;8.298;2024-03-23T23:38:15;5.07;;;2.58;;
23712;SDS011;12035;49.978;8.298;2024-03-23T23:43:12;3.90;;;2.15;;
23712;SDS011;12035;49.978;8.298;2024-03-23T23:48:09;4.90;;;2.25;;
23712;SDS011;12035;49.978;8.298;2024-03-23T23:53:07;3.05;;;2.08;;
23712;SDS011;12035;49.978;8.298;2024-03-23T23:58:04;3.55;;;2.00;;
